Time;durP1;ratioP1;P1;durP2;ratioP2;P2;SDS_P1;SDS_P2;PMS_P1;PMS_P2;Temp;Humidity;BMP_temperature;BMP_pressure;BME280_temperature;BME280_humidity;BME280_pressure;Samples;Min_cycle;Max_cycle;Signal;HPM_P1;HPM_P2
2023/04/26 00:02:18;;;;;;;3.40;3.20;;;6.60;99.90;;;;;;5102565;28;20222;-71
2023/04/26 00:04:46;;;;;;;3.72;3.08;;;6.50;99.90;;;;;;5106558;28;20203;-71
2023/04/26 00:07:14;;;;;;;2.65;2.45;;;6.50;99.90;;;;;;5099287;28;20227;-71
2023/04/26 00:09:43;;;;;;;3.10;2.88;;;6.50;99.90;;;;;;5090313;28;20250;-71
2023/04/26 00:12:10;;;;;;;1.52;1.42;;;6.50;99.90;;;;;;5090832;28;20223;-72
2023/04/26 00:14:38;;;;;;;3.42;1.92;;;6.50;99.90;;;;;;5091428;28;20205;-71
2023/04/26 00:17:05;;;;;;;2.20;1.55;;;6.40;99.90;;;;;;5100237;27;20239;-71
2023/04/26 00:19:31;;;;;;;2.58;1.88;;;6.40;99.90;;;;;;5110136;28;20230;-72
2023/04/26 00:21:58;;;;;;;2.30;1.90;;;6.40;99.90;;;;;;5110522;28;20218;-71
2023/04/26 00:24:25;;;;;;;1.27;1.25;;;6.40;99.90;;;;;;5111003;28;20297;-71
2023/04/26 00:26:55;;;;;;;3.80;2.72;;;6.40;99.90;;;;;;5110283;28;20228;-71
2023/04/26 00:29:22;;;;;;;2.42;2.22;;;6.20;99.90;;;;;;5107205;28;20202;-71
2023/04/26 00:31:49;;;;;;;15.55;2.08;;;6.20;99.90;;;;;;5104192;28;20231;-71
2023/04/26 00:34:16;;;;;;;2.97;2.65;;;6.30;99.90;;;;;;5103227;27;20206;-71
2023/04/26 00:36:43;;;;;;;1.58;1.40;;;6.20;99.90;;;;;;5099900;28;20309;-71
2023/04/26 00:39:09;;;;;;;2.28;1.85;;;6.20;99.90;;;;;;5100193;28;20198;-72
2023/04/26 00:41:36;;;;;;;1.80;1.70;;;6.20;99.90;;;;;;5093096;28;20224;-71
2023/04/26 00:44:05;;;;;;;4.60;2.40;;;6.00;99.90;;;;;;5094223;28;20213;-71
2023/04/26 00:46:32;;;;;;;1.60;1.50;;;6.00;99.90;;;;;;5101867;28;20736;-70
2023/04/26 00:48:59;;;;;;;5.88;1.60;;;6.00;99.90;;;;;;5103551;28;20568;-70
2023/04/26 00:51:27;;;;;;;4.60;2.25;;;6.00;99.90;;;;;;5092253;28;20552;-71
2023/04/26 00:53:54;;;;;;;1.95;1.85;;;6.00;99.90;;;;;;5089636;28;20209;-71
2023/04/26 00:56:23;;;;;;;2.63;1.30;;;5.90;99.90;;;;;;5095151;28;20871;-71
2023/04/26 00:58:49;;;;;;;1.70;1.38;;;5.90;99.90;;;;;;5107626;28;20190;-71
2023/04/26 01:01:18;;;;;;;1.95;1.67;;;5.80;99.90;;;;;;5102116;28;20866;-72
2023/04/26 01:03:46;;;;;;;1.77;1.65;;;5.80;99.90;;;;;;5105235;28;20796;-71
2023/04/26 01:06:13;;;;;;;2.22;1.30;;;5.80;99.90;;;;;;5105334;28;20549;-71
2023/04/26 01:08:40;;;;;;;3.38;2.10;;;5.80;99.90;;;;;;5094950;28;20669;-71
2023/04/26 01:11:07;;;;;;;3.97;1.77;;;5.90;99.90;;;;;;5106566;28;20226;-71
2023/04/26 01:13:36;;;;;;;1.85;1.75;;;5.80;99.90;;;;;;5089280;28;20738;-71
2023/04/26 01:16:05;;;;;;;3.45;2.40;;;5.80;99.90;;;;;;5098319;28;20222;-71
2023/04/26 01:18:34;;;;;;;1.60;1.50;;;5.80;99.90;;;;;;5104938;28;20223;-71
2023/04/26 01:21:03;;;;;;;3.08;2.47;;;5.80;99.90;;;;;;5090100;28;20254;-71
2023/04/26 01:23:32;;;;;;;1.88;1.70;;;5.70;99.90;;;;;;5089143;28;20237;-71
2023/04/26 01:26:00;;;;;;;1.95;1.80;;;5.70;99.90;;;;;;5088980;28;20665;-71
2023/04/26 01:28:28;;;;;;;2.08;1.27;;;5.70;99.90;;;;;;5097550;28;20716;-71
2023/04/26 01:30:55;;;;;;;1.60;1.50;;;5.70;99.90;;;;;;5109492;28;20226;-71
2023/04/26 01:33:22;;;;;;;1.83;1.73;;;5.70;99.90;;;;;;5098945;28;20233;-71
2023/04/26 01:35:49;;;;;;;2.55;2.38;;;5.70;99.90;;;;;;5088818;28;20228;-72
2023/04/26 01:38:16;;;;;;;2.47;1.95;;;5.70;99.90;;;;;;5095313;28;20218;-71
2023/04/26 01:40:45;;;;;;;2.85;1.67;;;5.70;99.90;;;;;;5097203;28;20223;-71
2023/04/26 01:43:14;;;;;;;5.90;2.30;;;5.60;99.90;;;;;;5099549;28;20304;-71
2023/04/26 01:45:42;;;;;;;2.63;2.42;;;5.60;99.90;;;;;;5106607;28;20597;-72
2023/04/26 01:48:11;;;;;;;2.88;1.95;;;5.50;99.90;;;;;;5103643;28;20660;-71
2023/04/26 01:50:39;;;;;;;1.92;1.83;;;5.50;99.90;;;;;;5108249;28;20306;-71
2023/04/26 01:53:06;;;;;;;2.20;2.00;;;5.30;99.90;;;;;;5099425;28;20683;-71
2023/04/26 01:55:35;;;;;;;2.70;2.50;;;5.20;99.90;;;;;;5089118;28;20227;-71
2023/04/26 01:58:04;;;;;;;2.05;1.95;;;5.30;99.90;;;;;;5090710;28;20314;-71
2023/04/26 02:00:32;;;;;;;1.88;1.55;;;5.30;99.90;;;;;;5096038;28;20534;-71
2023/04/26 02:02:59;;;;;;;2.03;1.85;;;5.40;99.90;;;;;;5087914;28;20236;-71
2023/04/26 02:05:27;;;;;;;5.70;2.50;;;5.30;99.90;;;;;;5102426;28;20224;-71
2023/04/26 02:07:53;;;;;;;3.83;2.67;;;5.30;99.90;;;;;;5108722;27;20535;-71
2023/04/26 02:10:20;;;;;;;2.83;2.35;;;5.40;99.90;;;;;;5090016;28;20672;-71
2023/04/26 02:12:47;;;;;;;2.25;2.15;;;5.40;99.90;;;;;;5108156;28;20579;-71
2023/04/26 02:15:15;;;;;;;2.10;1.70;;;5.40;99.90;;;;;;5092256;28;20192;-71
2023/04/26 02:17:42;;;;;;;3.03;2.70;;;5.40;99.90;;;;;;5090795;28;20217;-71
2023/04/26 02:20:11;;;;;;;3.72;2.50;;;5.30;99.90;;;;;;5107480;28;20194;-71
2023/04/26 02:22:38;;;;;;;2.05;1.90;;;5.20;99.90;;;;;;5100923;28;20200;-71
2023/04/26 02:25:07;;;;;;;3.55;2.65;;;5.10;99.90;;;;;;5100181;28;20712;-71
2023/04/26 02:27:34;;;;;;;2.00;1.80;;;5.00;99.90;;;;;;5106965;28;20606;-72
2023/04/26 02:30:01;;;;;;;4.45;2.20;;;5.00;99.90;;;;;;5088697;28;20195;-71
2023/04/26 02:32:31;;;;;;;2.83;1.85;;;5.00;99.90;;;;;;5105193;28;20198;-71
2023/04/26 02:34:59;;;;;;;2.35;2.08;;;4.90;99.90;;;;;;5099459;28;20198;-71
2023/04/26 02:37:26;;;;;;;1.42;1.42;;;5.00;99.90;;;;;;5106554;28;20322;-71
2023/04/26 02:39:53;;;;;;;2.40;2.05;;;5.10;99.90;;;;;;5106784;28;20222;-71
2023/04/26 02:42:20;;;;;;;2.80;2.22;;;5.20;99.90;;;;;;5104824;28;20849;-71
2023/04/26 02:44:47;;;;;;;2.47;2.22;;;5.20;99.90;;;;;;5098778;28;20204;-72
2023/04/26 02:47:15;;;;;;;1.83;1.70;;;5.20;99.90;;;;;;5087362;28;20339;-71
2023/04/26 02:49:44;;;;;;;2.65;1.67;;;5.10;99.90;;;;;;5091299;28;20201;-71
2023/04/26 02:52:11;;;;;;;1.65;1.55;;;5.20;99.90;;;;;;5106772;28;20214;-71
2023/04/26 02:54:39;;;;;;;3.42;2.78;;;5.30;99.90;;;;;;5103138;28;20713;-71
2023/04/26 02:57:08;;;;;;;2.10;1.90;;;5.30;99.90;;;;;;5107985;28;20711;-71
2023/04/26 02:59:35;;;;;;;1.50;1.40;;;5.30;99.90;;;;;;5101919;28;20230;-71
2023/04/26 03:02:03;;;;;;;2.75;2.55;;;5.40;99.90;;;;;;5087846;28;20711;-71
2023/04/26 03:04:34;;;;;;;2.40;1.77;;;5.40;99.90;;;;;;5101525;28;20206;-71
2023/04/26 03:07:04;;;;;;;2.53;2.33;;;5.40;99.90;;;;;;5103501;28;20242;-71
2023/04/26 03:09:33;;;;;;;1.67;1.58;;;5.50;99.90;;;;;;5100568;28;20195;-71
2023/04/26 03:12:02;;;;;;;2.67;2.00;;;5.50;99.90;;;;;;5086984;28;20310;-71
2023/04/26 03:14:28;;;;;;;7.43;1.80;;;5.30;99.90;;;;;;5099992;28;20218;-72
2023/04/26 03:16:55;;;;;;;4.50;2.70;;;5.20;99.90;;;;;;5112420;28;20227;-71
2023/04/26 03:19:22;;;;;;;2.10;2.00;;;5.10;99.90;;;;;;5091795;28;20277;-72
2023/04/26 03:21:49;;;;;;;3.88;3.38;;;5.20;99.90;;;;;;5091554;28;20246;-73
2023/04/26 03:24:17;;;;;;;3.38;2.97;;;5.10;99.90;;;;;;5091544;28;20274;-72
2023/04/26 03:26:44;;;;;;;2.63;2.40;;;5.10;99.90;;;;;;5110883;28;20301;-72
2023/04/26 03:29:11;;;;;;;4.95;2.22;;;5.10;99.90;;;;;;5109489;28;20284;-72
2023/04/26 03:31:38;;;;;;;7.78;2.92;;;5.10;99.90;;;;;;5111478;27;20596;-72
2023/04/26 03:34:06;;;;;;;3.80;2.63;;;4.90;99.90;;;;;;5104482;28;20216;-72
2023/04/26 03:36:33;;;;;;;3.45;2.55;;;4.90;99.90;;;;;;5091008;28;20228;-72
2023/04/26 03:39:00;;;;;;;3.65;3.05;;;4.90;99.90;;;;;;5096235;28;20201;-72
2023/04/26 03:41:29;;;;;;;2.28;1.98;;;4.90;99.90;;;;;;5108461;28;20219;-72
2023/04/26 03:43:55;;;;;;;4.75;2.60;;;4.90;99.90;;;;;;5107456;27;20186;-72
2023/04/26 03:46:22;;;;;;;3.10;2.80;;;4.90;99.90;;;;;;5090919;28;20234;-71
2023/04/26 03:48:49;;;;;;;6.40;3.58;;;4.90;99.90;;;;;;5104136;28;20198;-71
2023/04/26 03:51:16;;;;;;;2.83;1.60;;;4.80;99.90;;;;;;5107727;28;20222;-71
2023/04/26 03:53:45;;;;;;;4.25;3.08;;;4.70;99.90;;;;;;5090654;28;20198;-71
2023/04/26 03:56:12;;;;;;;2.42;1.80;;;4.60;99.90;;;;;;5096429;28;20227;-71
2023/04/26 03:58:40;;;;;;;2.20;1.63;;;4.70;99.90;;;;;;5108354;28;20698;-71
2023/04/26 04:01:07;;;;;;;6.50;3.85;;;4.60;99.90;;;;;;5101948;28;20214;-71
2023/04/26 04:03:34;;;;;;;2.50;2.40;;;4.60;99.90;;;;;;5110046;28;20198;-72
2023/04/26 04:06:01;;;;;;;3.15;1.98;;;4.60;99.90;;;;;;5110341;28;20230;-71
2023/04/26 04:08:28;;;;;;;2.60;2.15;;;4.50;99.90;;;;;;5108627;28;20199;-72
2023/04/26 04:10:55;;;;;;;7.43;2.83;;;4.30;99.90;;;;;;5091837;28;20235;-70
2023/04/26 04:13:22;;;;;;;2.42;2.22;;;4.20;99.90;;;;;;5108075;28;20498;-72
2023/04/26 04:15:50;;;;;;;4.85;4.20;;;4.20;99.90;;;;;;5090106;28;20210;-71
2023/04/26 04:18:17;;;;;;;3.35;2.78;;;4.30;99.90;;;;;;5089096;28;20302;-71
2023/04/26 04:20:44;;;;;;;5.13;2.97;;;4.30;99.90;;;;;;5089568;28;20226;-73
2023/04/26 04:23:11;;;;;;;3.15;2.28;;;4.20;99.90;;;;;;5090498;28;20209;-71
2023/04/26 04:25:38;;;;;;;2.53;2.30;;;4.30;99.90;;;;;;5089808;28;20305;-71
2023/04/26 04:28:05;;;;;;;4.10;3.00;;;4.20;99.90;;;;;;5089513;28;20248;-71
2023/04/26 04:30:32;;;;;;;1.75;1.65;;;4.30;99.90;;;;;;5089959;28;20242;-71
2023/04/26 04:33:00;;;;;;;7.97;3.72;;;4.30;99.90;;;;;;5090227;28;20289;-71
2023/04/26 04:35:28;;;;;;;3.78;3.47;;;4.20;99.90;;;;;;5088727;28;20233;-71
2023/04/26 04:37:56;;;;;;;2.10;1.95;;;4.20;99.90;;;;;;5090450;28;20317;-71
2023/04/26 04:40:24;;;;;;;2.45;2.22;;;4.10;99.90;;;;;;5090037;28;20211;-72
2023/04/26 04:42:51;;;;;;;3.20;3.00;;;4.10;99.90;;;;;;5109873;28;20205;-72
2023/04/26 04:45:17;;;;;;;2.70;2.50;;;4.10;99.90;;;;;;5101376;28;20200;-72
2023/04/26 04:47:45;;;;;;;2.22;2.13;;;4.10;99.90;;;;;;5105424;28;20273;-71
2023/04/26 04:50:13;;;;;;;3.80;2.10;;;4.10;99.90;;;;;;5095767;28;20191;-71
2023/04/26 04:52:41;;;;;;;3.78;3.47;;;4.20;99.90;;;;;;5110043;28;20210;-71
2023/04/26 04:55:08;;;;;;;3.80;2.63;;;4.30;99.90;;;;;;5109999;28;20274;-71
2023/04/26 04:57:35;;;;;;;2.25;2.10;;;4.40;99.90;;;;;;5107963;28;20210;-71
2023/04/26 05:00:08;;;;;;;4.85;2.67;;;4.50;99.90;;;;;;5108887;28;20191;-71
2023/04/26 05:02:35;;;;;;;3.50;3.20;;;4.50;99.90;;;;;;5109307;28;20549;-72
2023/04/26 05:05:03;;;;;;;3.90;2.88;;;4.50;99.90;;;;;;5110389;28;20189;-72
2023/04/26 05:07:31;;;;;;;3.55;3.25;;;4.60;99.90;;;;;;5098789;28;20284;-72
2023/04/26 05:09:58;;;;;;;7.95;3.42;;;4.70;99.90;;;;;;5096789;28;20203;-72
2023/04/26 05:12:25;;;;;;;4.90;3.90;;;4.70;99.90;;;;;;5105364;27;20573;-72
2023/04/26 05:14:52;;;;;;;3.25;2.90;;;4.70;99.90;;;;;;5098415;28;20199;-70
2023/04/26 05:17:19;;;;;;;2.53;2.30;;;4.80;99.90;;;;;;5091318;28;20211;-71
2023/04/26 05:19:46;;;;;;;5.75;3.00;;;4.90;99.90;;;;;;5106109;28;20289;-70
2023/04/26 05:22:16;;;;;;;5.80;3.95;;;4.90;99.90;;;;;;5107926;27;20215;-71
2023/04/26 05:24:45;;;;;;;4.00;3.60;;;4.90;99.90;;;;;;5092348;28;20197;-72
2023/04/26 05:27:12;;;;;;;3.80;3.33;;;5.10;99.90;;;;;;5101367;28;20216;-71
2023/04/26 05:29:39;;;;;;;4.78;3.28;;;5.10;99.90;;;;;;5094028;28;20272;-72
2023/04/26 05:32:06;;;;;;;4.65;3.95;;;5.00;99.90;;;;;;5101950;28;20240;-72
2023/04/26 05:34:33;;;;;;;6.53;4.68;;;5.10;99.90;;;;;;5088419;28;20196;-72
2023/04/26 05:37:00;;;;;;;10.73;3.78;;;5.20;99.90;;;;;;5087953;28;20226;-72
2023/04/26 05:39:26;;;;;;;4.82;3.60;;;5.20;99.90;;;;;;5107137;28;20233;-72
2023/04/26 05:41:54;;;;;;;5.10;4.65;;;5.20;99.90;;;;;;5101928;28;20230;-72
2023/04/26 05:44:21;;;;;;;4.00;2.97;;;5.30;99.90;;;;;;5095649;28;20621;-71
2023/04/26 05:46:48;;;;;;;7.13;4.63;;;5.30;99.90;;;;;;5107006;28;20214;-72
2023/04/26 05:49:15;;;;;;;8.35;4.35;;;5.30;99.90;;;;;;5095223;28;20199;-72
2023/04/26 05:51:42;;;;;;;3.72;3.42;;;5.30;99.90;;;;;;5107326;28;20578;-73
2023/04/26 05:54:08;;;;;;;3.22;2.97;;;5.40;99.90;;;;;;5092068;28;20208;-72
2023/04/26 05:56:35;;;;;;;4.72;3.78;;;5.50;99.90;;;;;;5098525;28;20554;-72
2023/04/26 05:59:03;;;;;;;3.58;3.28;;;5.60;99.90;;;;;;5098810;28;20226;-71
2023/04/26 06:01:30;;;;;;;6.38;3.88;;;5.60;99.90;;;;;;5102418;28;20226;-71
2023/04/26 06:03:57;;;;;;;12.52;3.00;;;5.60;99.90;;;;;;5105776;28;20274;-72
2023/04/26 06:06:24;;;;;;;5.68;3.83;;;5.60;99.90;;;;;;5088504;28;20227;-71
2023/04/26 06:08:51;;;;;;;4.47;4.07;;;5.70;99.90;;;;;;5095910;28;20191;-70
2023/04/26 06:11:18;;;;;;;3.45;2.95;;;5.70;99.90;;;;;;5087694;28;20743;-70
2023/04/26 06:13:45;;;;;;;4.85;2.95;;;5.70;99.90;;;;;;5089417;28;20211;-70
2023/04/26 06:16:13;;;;;;;5.22;4.53;;;5.80;99.90;;;;;;5088722;28;20565;-70
2023/04/26 06:18:40;;;;;;;5.85;3.35;;;6.00;99.90;;;;;;5098793;28;20561;-70
2023/04/26 06:21:07;;;;;;;7.85;4.55;;;6.50;99.90;;;;;;5102244;28;20309;-71
2023/04/26 06:23:34;;;;;;;3.60;3.30;;;6.20;99.90;;;;;;5088783;28;20691;-71
2023/04/26 06:26:01;;;;;;;4.93;3.90;;;6.10;99.90;;;;;;5096159;28;20798;-70
2023/04/26 06:28:27;;;;;;;5.75;4.28;;;6.00;99.90;;;;;;5100200;28;20685;-70
2023/04/26 06:30:54;;;;;;;4.55;3.83;;;5.90;99.90;;;;;;5087932;28;20318;-70
2023/04/26 06:33:22;;;;;;;4.50;4.20;;;6.00;99.90;;;;;;5105558;28;20567;-70
2023/04/26 06:35:51;;;;;;;21.88;12.25;;;6.10;99.90;;;;;;5098513;28;20227;-70
2023/04/26 06:38:18;;;;;;;5.40;4.50;;;6.30;99.90;;;;;;5105844;28;20321;-71
2023/04/26 06:40:44;;;;;;;5.35;4.50;;;6.60;99.90;;;;;;5107951;28;20328;-71
2023/04/26 06:43:11;;;;;;;3.55;2.88;;;6.50;99.90;;;;;;5107793;28;20192;-71
2023/04/26 06:45:38;;;;;;;3.88;3.50;;;6.60;99.90;;;;;;5090581;28;20220;-71
2023/04/26 06:48:05;;;;;;;4.70;2.92;;;6.50;99.90;;;;;;5101490;28;20241;-70
2023/04/26 06:50:39;;;;;;;4.05;3.75;;;6.50;99.90;;;;;;5110493;28;20227;-70
2023/04/26 06:53:06;;;;;;;3.33;2.50;;;6.50;99.80;;;;;;5104391;28;20195;-70
2023/04/26 06:55:32;;;;;;;4.18;3.85;;;6.60;99.20;;;;;;5091872;28;20232;-71
2023/04/26 06:57:59;;;;;;;3.15;2.85;;;6.60;98.80;;;;;;5093401;28;20227;-70
2023/04/26 07:00:26;;;;;;;2.50;1.92;;;6.70;99.10;;;;;;5110770;28;20248;-70
2023/04/26 07:02:53;;;;;;;4.28;3.75;;;6.90;99.30;;;;;;5102375;28;20279;-70
2023/04/26 07:05:20;;;;;;;2.90;2.70;;;6.90;99.30;;;;;;5099121;28;20558;-71
2023/04/26 07:07:49;;;;;;;4.47;2.70;;;7.10;99.10;;;;;;5094920;28;20263;-70
2023/04/26 07:10:16;;;;;;;3.70;3.10;;;7.00;98.30;;;;;;5090329;28;20196;-70
2023/04/26 07:12:43;;;;;;;2.58;2.33;;;7.00;98.30;;;;;;5091431;28;20196;-70
2023/04/26 07:15:10;;;;;;;3.28;2.97;;;7.10;98.40;;;;;;5104920;28;20210;-70
2023/04/26 07:17:37;;;;;;;4.97;3.80;;;7.40;98.50;;;;;;5102479;27;20200;-70
2023/04/26 07:20:05;;;;;;;4.53;4.20;;;7.50;98.10;;;;;;5104941;28;20230;-70
2023/04/26 07:22:32;;;;;;;10.43;4.32;;;7.60;98.30;;;;;;5110636;28;20201;-70
2023/04/26 07:25:00;;;;;;;8.43;2.85;;;7.60;97.60;;;;;;5100439;27;20292;-70
2023/04/26 07:27:26;;;;;;;7.10;5.10;;;7.70;98.00;;;;;;5092347;28;20586;-71
2023/04/26 07:29:54;;;;;;;4.90;2.37;;;7.80;96.00;;;;;;5099780;28;20196;-71
2023/04/26 07:32:21;;;;;;;2.70;2.50;;;7.80;96.60;;;;;;5105928;28;21284;-70
2023/04/26 07:34:48;;;;;;;4.03;3.73;;;8.40;97.30;;;;;;5101482;28;20636;-70
2023/04/26 07:37:15;;;;;;;2.03;1.93;;;8.50;96.20;;;;;;5107400;28;20651;-70
2023/04/26 07:39:42;;;;;;;3.47;3.20;;;8.70;95.70;;;;;;5102772;28;20669;-69
2023/04/26 07:42:10;;;;;;;5.77;2.23;;;8.60;94.90;;;;;;5109068;28;20756;-70
2023/04/26 07:44:37;;;;;;;3.63;2.40;;;9.00;94.80;;;;;;5090894;28;20632;-70
2023/04/26 07:47:03;;;;;;;4.10;2.80;;;9.50;93.70;;;;;;5090115;28;20645;-70
2023/04/26 07:49:30;;;;;;;2.20;2.10;;;9.80;92.20;;;;;;5092918;28;21080;-70
2023/04/26 07:52:00;;;;;;;2.67;2.43;;;9.40;90.40;;;;;;5111370;28;20638;-70
2023/04/26 07:54:27;;;;;;;3.20;2.40;;;9.30;92.10;;;;;;5099237;28;21320;-70
2023/04/26 07:56:54;;;;;;;2.43;2.23;;;9.60;92.30;;;;;;5106109;28;21237;-69
2023/04/26 07:59:22;;;;;;;3.37;3.00;;;10.00;89.80;;;;;;5108842;28;20658;-70
2023/04/26 08:01:50;;;;;;;2.67;2.30;;;10.30;88.10;;;;;;5099948;28;20659;-69
2023/04/26 08:04:18;;;;;;;3.77;3.20;;;10.40;86.60;;;;;;5105005;28;20622;-70
2023/04/26 08:06:47;;;;;;;2.93;2.30;;;10.60;87.80;;;;;;5106167;28;20665;-69
2023/04/26 08:09:14;;;;;;;2.43;2.23;;;10.40;83.30;;;;;;5096629;28;20668;-69
2023/04/26 08:11:41;;;;;;;2.20;1.53;;;10.60;83.70;;;;;;5089924;28;20654;-69
2023/04/26 08:14:07;;;;;;;3.37;2.63;;;10.80;83.10;;;;;;5094996;28;20756;-69
2023/04/26 08:16:35;;;;;;;2.10;1.87;;;10.80;81.70;;;;;;5110753;28;20647;-69
2023/04/26 08:19:02;;;;;;;2.83;2.63;;;10.80;80.80;;;;;;5104925;28;20669;-69
2023/04/26 08:21:29;;;;;;;3.30;2.70;;;11.10;83.40;;;;;;5105233;28;20646;-69
2023/04/26 08:23:56;;;;;;;4.30;2.43;;;10.50;81.60;;;;;;5110066;28;20690;-69
2023/04/26 08:26:23;;;;;;;1.80;1.47;;;10.20;78.50;;;;;;5108710;28;20658;-69
2023/04/26 08:28:50;;;;;;;2.07;1.80;;;10.40;83.80;;;;;;5092728;28;20998;-69
2023/04/26 08:31:17;;;;;;;3.27;1.77;;;10.80;82.60;;;;;;5091470;28;20831;-69
2023/04/26 08:33:45;;;;;;;3.20;2.40;;;10.70;81.90;;;;;;5096105;28;20630;-69
2023/04/26 08:36:12;;;;;;;2.80;2.23;;;10.70;83.50;;;;;;5094340;28;21340;-69
2023/04/26 08:38:39;;;;;;;2.33;2.13;;;10.70;84.60;;;;;;5099813;28;20977;-69
2023/04/26 08:41:09;;;;;;;8.77;3.40;;;10.30;83.10;;;;;;5092991;28;20745;-69
2023/04/26 08:43:37;;;;;;;3.83;2.63;;;9.80;87.20;;;;;;5092884;28;20721;-69
2023/04/26 08:46:08;;;;;;;3.30;2.27;;;9.60;87.30;;;;;;5091376;28;20655;-69
2023/04/26 08:48:37;;;;;;;2.73;2.30;;;9.20;87.60;;;;;;5089787;28;20649;-69
2023/04/26 08:51:07;;;;;;;2.40;2.20;;;9.20;88.50;;;;;;5095889;28;20660;-69
2023/04/26 08:53:35;;;;;;;2.30;2.10;;;9.20;90.10;;;;;;5098184;28;20642;-70
2023/04/26 08:56:04;;;;;;;3.57;2.80;;;9.40;90.40;;;;;;5099872;27;20656;-69
2023/04/26 08:58:31;;;;;;;1.93;1.83;;;9.60;89.20;;;;;;5095391;28;20619;-70
2023/04/26 09:00:59;;;;;;;2.47;1.87;;;9.50;88.50;;;;;;5093631;28;20672;-69
2023/04/26 09:03:26;;;;;;;7.30;2.60;;;9.00;87.10;;;;;;5089805;28;20635;-69
2023/04/26 09:05:54;;;;;;;4.07;3.23;;;9.10;90.10;;;;;;5088603;28;20646;-69
2023/04/26 09:08:23;;;;;;;3.80;3.10;;;9.30;90.10;;;;;;5087658;28;20752;-68
2023/04/26 09:10:49;;;;;;;6.60;3.23;;;9.50;90.00;;;;;;5088935;28;20754;-70
2023/04/26 09:13:16;;;;;;;4.50;3.70;;;9.70;88.30;;;;;;5087354;28;20629;-69
2023/04/26 09:15:43;;;;;;;7.03;2.83;;;9.70;88.40;;;;;;5089105;28;20662;-69
2023/04/26 09:18:17;;;;;;;3.00;2.80;;;9.80;87.30;;;;;;5104052;28;21186;-69
2023/04/26 09:20:45;;;;;;;3.73;3.07;;;9.80;88.70;;;;;;5088508;28;20685;-69
2023/04/26 09:23:11;;;;;;;2.90;2.10;;;9.80;86.60;;;;;;5096532;28;20614;-69
2023/04/26 09:25:40;;;;;;;2.07;1.87;;;9.80;86.50;;;;;;5089733;28;20654;-69
2023/04/26 09:28:19;;;;;;;4.90;2.30;;;9.50;84.80;;;;;;5099982;28;20650;-69
2023/04/26 09:30:46;;;;;;;3.73;2.37;;;9.50;86.70;;;;;;5095178;28;20669;-69
2023/04/26 09:33:13;;;;;;;2.47;1.97;;;9.40;85.20;;;;;;5108434;28;21270;-69
2023/04/26 09:35:41;;;;;;;3.27;2.10;;;9.10;83.90;;;;;;5093981;28;20712;-69
2023/04/26 09:38:09;;;;;;;6.63;1.80;;;9.00;85.00;;;;;;5097983;28;20636;-69
2023/04/26 09:40:40;;;;;;;2.60;2.23;;;8.90;84.50;;;;;;5091739;28;20670;-69
2023/04/26 09:43:10;;;;;;;2.90;2.10;;;8.70;83.50;;;;;;5104193;27;21183;-69
2023/04/26 09:45:44;;;;;;;3.10;2.70;;;8.90;87.30;;;;;;5092684;28;20656;-69
2023/04/26 09:48:16;;;;;;;3.00;2.70;;;9.10;87.90;;;;;;5102834;28;20626;-69
2023/04/26 09:50:44;;;;;;;3.60;2.93;;;9.20;86.00;;;;;;5108954;28;21022;-69
2023/04/26 09:53:11;;;;;;;3.67;2.23;;;9.00;85.10;;;;;;5108423;28;20631;-69
2023/04/26 09:55:39;;;;;;;7.83;2.80;;;9.00;85.50;;;;;;5108550;28;20712;-69
2023/04/26 09:58:10;;;;;;;2.53;2.33;;;9.20;87.00;;;;;;5107058;28;20732;-70
2023/04/26 10:00:39;;;;;;;3.37;3.07;;;9.40;84.40;;;;;;5099877;28;20686;-70
2023/04/26 10:03:08;;;;;;;2.20;2.00;;;9.70;83.80;;;;;;5088234;28;20631;-72
2023/04/26 10:05:36;;;;;;;6.17;2.63;;;9.80;83.70;;;;;;5088427;28;20647;-72
2023/04/26 10:08:03;;;;;;;3.00;2.57;;;9.80;82.30;;;;;;5086794;28;20614;-71
2023/04/26 10:10:31;;;;;;;2.83;2.60;;;10.20;82.40;;;;;;5108682;28;21202;-72
2023/04/26 10:13:00;;;;;;;3.10;2.63;;;10.50;81.70;;;;;;5106946;28;20627;-75
2023/04/26 10:15:27;;;;;;;14.93;2.63;;;10.70;81.20;;;;;;5105413;28;21038;-75
2023/04/26 10:17:54;;;;;;;3.30;2.40;;;10.90;80.40;;;;;;5108333;28;20617;-74
2023/04/26 10:20:23;;;;;;;4.10;2.43;;;11.20;80.20;;;;;;5107921;28;21228;-74
2023/04/26 10:22:53;;;;;;;4.77;3.20;;;11.40;81.00;;;;;;5106857;28;20646;-74
2023/04/26 10:25:20;;;;;;;2.30;2.10;;;11.60;77.80;;;;;;5106515;28;20636;-74
2023/04/26 10:27:51;;;;;;;1.70;1.60;;;11.50;77.90;;;;;;5102991;27;20603;-74
2023/04/26 10:30:22;;;;;;;2.17;1.83;;;11.50;79.00;;;;;;5087576;28;20986;-73
2023/04/26 10:33:16;;;;;;;4.00;3.47;;;11.60;78.60;;;;;;5088076;28;20681;-74
2023/04/26 10:36:09;;;;;;;3.67;3.08;;;11.70;76.20;;;;;;5086907;28;20837;-71
2023/04/26 10:38:40;;;;;;;2.30;2.10;;;11.50;76.00;;;;;;5090038;28;20626;-71
2023/04/26 10:41:43;;;;;;;4.20;2.37;;;11.10;75.20;;;;;;5108480;28;20669;-71
2023/04/26 10:44:39;;;;;;;3.50;2.80;;;10.60;73.10;;;;;;5106993;28;20626;-72
2023/04/26 10:47:20;;;;;;;2.10;1.90;;;10.60;76.60;;;;;;5089667;28;20655;-71
2023/04/26 10:49:47;;;;;;;2.63;1.67;;;10.80;79.20;;;;;;5087253;28;20621;-72
2023/04/26 10:52:15;;;;;;;1.70;1.60;;;10.80;78.40;;;;;;5088433;28;20669;-72
2023/04/26 10:54:53;;;;;;;1.80;1.70;;;11.00;76.40;;;;;;5105076;28;21012;-71
2023/04/26 10:57:21;;;;;;;2.80;2.33;;;11.00;74.40;;;;;;5104902;28;20653;-71
2023/04/26 11:00:20;;;;;;;2.77;1.37;;;10.70;73.40;;;;;;5098199;28;20660;-71
2023/04/26 11:02:54;;;;;;;2.40;1.43;;;11.00;75.50;;;;;;5087033;28;20626;-71
2023/04/26 11:05:41;;;;;;;2.77;2.03;;;11.40;76.00;;;;;;5091750;28;21182;-72
2023/04/26 11:08:16;;;;;;;3.30;1.67;;;11.30;73.60;;;;;;5092016;28;20634;-72
2023/04/26 11:10:43;;;;;;;2.10;1.83;;;11.30;74.50;;;;;;5087449;28;20662;-72
2023/04/26 11:13:10;;;;;;;3.27;2.27;;;11.40;78.70;;;;;;5093141;28;20667;-72
2023/04/26 11:15:36;;;;;;;1.90;1.70;;;11.60;77.80;;;;;;5093422;28;20655;-72
2023/04/26 11:18:05;;;;;;;2.70;2.50;;;11.80;74.90;;;;;;5087321;28;20657;-72
2023/04/26 11:20:33;;;;;;;2.20;2.00;;;11.90;72.90;;;;;;5103295;28;20685;-72
2023/04/26 11:23:00;;;;;;;2.37;2.17;;;11.90;72.60;;;;;;5106575;28;20624;-72
2023/04/26 11:25:28;;;;;;;1.70;1.60;;;11.60;70.10;;;;;;5088035;28;21231;-72
2023/04/26 11:28:02;;;;;;;5.17;2.53;;;11.60;73.50;;;;;;5088704;28;21221;-72
2023/04/26 11:30:30;;;;;;;2.30;2.10;;;11.70;72.70;;;;;;5089785;28;20678;-72
2023/04/26 11:32:58;;;;;;;1.77;1.67;;;11.70;69.10;;;;;;5087262;28;20738;-72
2023/04/26 11:35:28;;;;;;;1.53;1.43;;;11.90;71.20;;;;;;5087488;28;20647;-72
2023/04/26 11:37:59;;;;;;;3.10;2.70;;;12.80;72.00;;;;;;5090869;28;20672;-72
2023/04/26 11:40:28;;;;;;;1.43;1.27;;;13.70;68.30;;;;;;5093101;28;20679;-72
2023/04/26 11:42:59;;;;;;;1.70;1.60;;;14.30;65.50;;;;;;5102517;28;20991;-72
2023/04/26 11:45:26;;;;;;;1.93;1.67;;;14.50;62.40;;;;;;5107227;28;20660;-72
2023/04/26 11:47:53;;;;;;;2.37;2.00;;;14.80;63.80;;;;;;5096810;28;20694;-72
2023/04/26 11:50:25;;;;;;;2.53;1.63;;;14.90;62.60;;;;;;5109896;28;20640;-72
2023/04/26 11:52:54;;;;;;;2.03;1.90;;;15.20;59.70;;;;;;5110288;28;20638;-73
2023/04/26 11:55:24;;;;;;;1.60;1.50;;;15.70;63.60;;;;;;5100829;28;20630;-73
2023/04/26 11:57:51;;;;;;;1.90;1.73;;;15.70;62.40;;;;;;5107079;28;20665;-72
2023/04/26 12:00:20;;;;;;;1.70;1.60;;;16.50;59.40;;;;;;5089549;28;20767;-72
2023/04/26 12:02:47;;;;;;;1.40;1.30;;;16.80;58.60;;;;;;5090765;28;20732;-72
2023/04/26 12:05:29;;;;;;;1.70;1.60;;;17.40;59.20;;;;;;5090622;28;21173;-72
2023/04/26 12:07:58;;;;;;;2.23;2.03;;;18.40;59.50;;;;;;5088486;28;20719;-72
2023/04/26 12:10:27;;;;;;;2.10;1.80;;;19.00;54.50;;;;;;5090595;28;20744;-72
2023/04/26 12:12:56;;;;;;;2.47;1.90;;;18.70;53.60;;;;;;5090664;28;20670;-72
2023/04/26 12:15:24;;;;;;;2.63;2.10;;;19.10;53.90;;;;;;5090123;28;20644;-72
2023/04/26 12:17:56;;;;;;;2.03;1.87;;;19.20;52.80;;;;;;5090591;28;20655;-72
2023/04/26 12:20:31;;;;;;;2.03;1.93;;;19.10;53.90;;;;;;5090047;28;20662;-72
2023/04/26 12:23:04;;;;;;;2.20;2.00;;;18.80;51.50;;;;;;5090535;28;20715;-72
2023/04/26 12:25:32;;;;;;;1.37;1.27;;;19.30;53.40;;;;;;5090558;28;21196;-72
2023/04/26 12:27:59;;;;;;;1.93;1.80;;;20.60;53.30;;;;;;5089993;28;20638;-71
2023/04/26 12:30:28;;;;;;;2.37;2.17;;;21.50;52.10;;;;;;5089532;28;20660;-72
2023/04/26 12:32:55;;;;;;;4.73;1.80;;;22.00;51.10;;;;;;5090175;28;21071;-70
2023/04/26 12:35:23;;;;;;;1.80;1.70;;;22.80;47.80;;;;;;5090499;28;20621;-70
2023/04/26 12:37:52;;;;;;;1.87;1.77;;;23.50;45.80;;;;;;5090369;28;20627;-70
2023/04/26 12:40:20;;;;;;;2.17;1.90;;;22.70;46.30;;;;;;5089646;28;20656;-71
2023/04/26 12:42:48;;;;;;;2.37;2.17;;;21.70;46.50;;;;;;5110217;28;20612;-70
2023/04/26 12:45:15;;;;;;;2.20;2.00;;;21.40;46.50;;;;;;5110595;28;20610;-71
2023/04/26 12:47:42;;;;;;;1.40;1.30;;;21.60;48.50;;;;;;5110038;28;21263;-71
2023/04/26 12:50:11;;;;;;;6.27;2.17;;;21.80;46.30;;;;;;5109694;28;20623;-71
2023/04/26 12:52:38;;;;;;;2.43;2.23;;;20.80;46.10;;;;;;5110474;28;20626;-71
2023/04/26 12:55:06;;;;;;;2.80;2.60;;;21.60;47.90;;;;;;5110008;28;20969;-71
2023/04/26 12:57:35;;;;;;;3.10;1.73;;;20.40;45.10;;;;;;5109969;28;20628;-71
2023/04/26 13:00:01;;;;;;;2.03;1.87;;;18.70;47.50;;;;;;5109380;28;21529;-71